KLR weather

Kalmar Airport
Kalmar län, Sweden

Public forecast

Using degrees Celsius for public forecast. Weather courtesy of forecast.io.

Current aviation weather report (METAR) for Kalmar Airport

Retrieved 2020/02/24 20:50 UTC (10 minutes ago):

ESMQ 242050Z 00000KT CAVOK M01/M02 Q1003

Aviation forecast (TAF) for Kalmar Airport

Forecast is more than 12 hours old.

Retrieved 2016/04/23 12:33 UTC (4 years ago):

TAF ESMQ 231130Z 2312/2324 06007KT 9999 FEW010 SCT035 PROB40 2312/2315 SHRAGS BKN014 BKN030CB